Mathilde Maersk — OUJS2 — position and weather

sailwx.info

Track history (hours):
 
Tides and Currents Weather Stations Pressure Air Temp Water Temp Dewpoint Dewpoint Depression Visibility Wind Speed Wind Dir Waves Ship Positions

Mathilde Maersk

Last reported at 2016-May-28 17:17 UTC. Time now 2016-May-29 02:01 UTC.
Position N 43°26' E 014°45'.

Length 367 m; draft 12.2 m.

Type: Ship (hazmat cat B). MMSI: 220597990.

Date/timePositionNaut miles runAvg speedWind from/ knotsBaromVisibWave heightAir tempDewpointWater temp
2016-May-28 17:17N 43°26' E 014°45'3017.3
2016-May-28 15:33N 43°50' E 014°20'1717.5
2016-May-28 14:33N 44°04' E 014°05'1717.5
2016-May-28 13:34N 44°18' E 013°51'1515.1
2016-May-28 12:33N 44°33' E 013°45'1817.6
2016-May-28 11:33N 44°45' E 014°02'2 0.1
2016-May-27 02:33N 44°47' E 014°05'2221.9
2016-May-27 01:33N 44°43' E 013°34'2222.2
2016-May-27 00:34N 44°58' E 013°12'2222.0
2016-May-26 23:34N 45°19' E 013°01'2020.3
2016-May-26 22:33N 45°34' E 013°21'1716.7
2016-May-26 21:33N 45°38' E 013°44'2 0.2
2016-May-26 14:07N 45°38' E 013°46'0 0.0
2016-May-26 13:28N 45°38' E 013°46'0 0.0
2016-May-25 15:31N 45°38' E 013°46'0 0.0
2016-May-25 14:31N 45°38' E 013°46'  
2016-May-22 06:28N 41°34' E 017°24'  
2016-May-19 22:20N 33°09' E 033°25'1418.5
2016-May-19 21:33N 33°07' E 033°41'5717.9
2016-May-19 18:22N 32°55' E 034°48'1215.1
2016-May-19 17:33N 32°50' E 035°01'1 1.2
2016-May-19 16:31N 32°49' E 035°01'0 0.0
2016-May-19 15:31N 32°49' E 035°01'0 0.0
2016-May-19 14:31N 32°49' E 035°01'0 0.0
2016-May-19 13:28N 32°49' E 035°01'0 0.0
2016-May-19 12:31N 32°49' E 035°01'0 0.0
2016-May-19 11:31N 32°49' E 035°01'0 0.0
2016-May-19 10:31N 32°49' E 035°01'0 0.0
2016-May-19 09:31N 32°49' E 035°01'0 0.0
2016-May-19 08:31N 32°49' E 035°01'0 0.0
2016-May-19 07:31N 32°49' E 035°01'0 0.0
2016-May-19 06:31N 32°49' E 035°01'0 0.0
2016-May-19 05:31N 32°49' E 035°01'0 0.0
2016-May-19 04:31N 32°49' E 035°01'0 0.0
2016-May-19 03:31N 32°49' E 035°01'0 0.0
2016-May-19 02:31N 32°49' E 035°01'0 0.0
2016-May-19 01:28N 32°49' E 035°01'0 0.0
2016-May-19 00:31N 32°49' E 035°01'0 0.0
2016-May-18 23:31N 32°49' E 035°01'0 0.0
2016-May-18 22:31N 32°49' E 035°01'0 0.0
2016-May-18 21:31N 32°49' E 035°01'0 0.0
2016-May-18 20:31N 32°49' E 035°01'1 1.4
2016-May-18 19:33N 32°50' E 035°01'3 2.9
2016-May-18 18:33N 32°52' E 034°58'3 2.6
2016-May-18 17:33N 32°53' E 034°55'  
Track history (hours):
 
Tides and Currents Weather Stations Pressure Air Temp Water Temp Dewpoint Dewpoint Depression Visibility Wind Speed Wind Dir Waves Ship Positions

Mathilde Maersk

Last reported at 2016-May-28 17:17 UTC. Time now 2016-May-29 02:01 UTC.
Position N 43°26' E 014°45'.

Length 367 m; draft 12.2 m.

Type: Ship (hazmat cat B). MMSI: 220597990.

Date/timePositionNaut miles runAvg speedWind from/ knotsBaromVisibWave heightAir tempDewpointWater temp
2016-May-28 17:17N 43°26' E 014°45'3017.3
2016-May-28 15:33N 43°50' E 014°20'1717.5
2016-May-28 14:33N 44°04' E 014°05'1717.5
2016-May-28 13:34N 44°18' E 013°51'1515.1
2016-May-28 12:33N 44°33' E 013°45'1817.6
2016-May-28 11:33N 44°45' E 014°02'2 0.1
2016-May-27 02:33N 44°47' E 014°05'2221.9
2016-May-27 01:33N 44°43' E 013°34'2222.2
2016-May-27 00:34N 44°58' E 013°12'2222.0
2016-May-26 23:34N 45°19' E 013°01'2020.3
2016-May-26 22:33N 45°34' E 013°21'1716.7
2016-May-26 21:33N 45°38' E 013°44'2 0.2
2016-May-26 14:07N 45°38' E 013°46'0 0.0
2016-May-26 13:28N 45°38' E 013°46'0 0.0
2016-May-25 15:31N 45°38' E 013°46'0 0.0
2016-May-25 14:31N 45°38' E 013°46'  
2016-May-22 06:28N 41°34' E 017°24'  
2016-May-19 22:20N 33°09' E 033°25'1418.5
2016-May-19 21:33N 33°07' E 033°41'5717.9
2016-May-19 18:22N 32°55' E 034°48'1215.1
2016-May-19 17:33N 32°50' E 035°01'1 1.2
2016-May-19 16:31N 32°49' E 035°01'0 0.0
2016-May-19 15:31N 32°49' E 035°01'0 0.0
2016-May-19 14:31N 32°49' E 035°01'0 0.0
2016-May-19 13:28N 32°49' E 035°01'0 0.0
2016-May-19 12:31N 32°49' E 035°01'0 0.0
2016-May-19 11:31N 32°49' E 035°01'0 0.0
2016-May-19 10:31N 32°49' E 035°01'0 0.0
2016-May-19 09:31N 32°49' E 035°01'0 0.0
2016-May-19 08:31N 32°49' E 035°01'0 0.0
2016-May-19 07:31N 32°49' E 035°01'0 0.0
2016-May-19 06:31N 32°49' E 035°01'0 0.0
2016-May-19 05:31N 32°49' E 035°01'0 0.0
2016-May-19 04:31N 32°49' E 035°01'0 0.0
2016-May-19 03:31N 32°49' E 035°01'0 0.0
2016-May-19 02:31N 32°49' E 035°01'0 0.0
2016-May-19 01:28N 32°49' E 035°01'0 0.0
2016-May-19 00:31N 32°49' E 035°01'0 0.0
2016-May-18 23:31N 32°49' E 035°01'0 0.0
2016-May-18 22:31N 32°49' E 035°01'0 0.0
2016-May-18 21:31N 32°49' E 035°01'0 0.0
2016-May-18 20:31N 32°49' E 035°01'1 1.4
2016-May-18 19:33N 32°50' E 035°01'3 2.9
2016-May-18 18:33N 32°52' E 034°58'3 2.6
2016-May-18 17:33N 32°53' E 034°55'  

Dump ship's entire track history